sensor_id;sensor_type;location;lat;lon;timestamp;pressure;altitude;pressure_sealevel;temperature;humidity
62420;BME280;48460;51.616;5.426;2022-12-07T00:01:46;101758.19;;;2.44;100.00
62420;BME280;48460;51.616;5.426;2022-12-07T00:04:15;101761.63;;;2.40;100.00
62420;BME280;48460;51.616;5.426;2022-12-07T00:06:52;101756.47;;;2.36;100.00
62420;BME280;48460;51.616;5.426;2022-12-07T00:09:18;101755.63;;;2.35;100.00
62420;BME280;48460;51.616;5.426;2022-12-07T00:11:51;101753.03;;;2.32;100.00
62420;BME280;48460;51.616;5.426;2022-12-07T00:14:17;101750.44;;;2.32;100.00
62420;BME280;48460;51.616;5.426;2022-12-07T00:16:48;101746.97;;;2.25;100.00
62420;BME280;48460;51.616;5.426;2022-12-07T00:19:14;101746.97;;;2.22;100.00
62420;BME280;48460;51.616;5.426;2022-12-07T00:21:44;101747.00;;;2.21;100.00
62420;BME280;48460;51.616;5.426;2022-12-07T00:24:12;101737.50;;;2.18;100.00
62420;BME280;48460;51.616;5.426;2022-12-07T00:26:39;101734.88;;;2.20;100.00
62420;BME280;48460;51.616;5.426;2022-12-07T00:29:20;101736.59;;;2.19;100.00
62420;BME280;48460;51.616;5.426;2022-12-07T00:31:47;101732.28;;;2.17;100.00
62420;BME280;48460;51.616;5.426;2022-12-07T00:34:15;101733.16;;;2.19;100.00
62420;BME280;48460;51.616;5.426;2022-12-07T00:36:41;101730.59;;;2.14;100.00
62420;BME280;48460;51.616;5.426;2022-12-07T00:39:15;101732.31;;;2.09;100.00
62420;BME280;48460;51.616;5.426;2022-12-07T00:41:44;101733.19;;;2.08;100.00
62420;BME280;48460;51.616;5.426;2022-12-07T00:44:10;101736.66;;;2.07;100.00
62420;BME280;48460;51.616;5.426;2022-12-07T00:46:35;101734.06;;;2.05;100.00
62420;BME280;48460;51.616;5.426;2022-12-07T00:49:12;101737.53;;;2.06;100.00
62420;BME280;48460;51.616;5.426;2022-12-07T00:51:40;101734.09;;;1.99;100.00
62420;BME280;48460;51.616;5.426;2022-12-07T00:54:08;101740.16;;;1.97;100.00
62420;BME280;48460;51.616;5.426;2022-12-07T00:56:38;101732.38;;;1.94;100.00
62420;BME280;48460;51.616;5.426;2022-12-07T00:59:06;101730.63;;;1.90;100.00
62420;BME280;48460;51.616;5.426;2022-12-07T01:01:35;101728.06;;;1.88;100.00
62420;BME280;48460;51.616;5.426;2022-12-07T01:04:04;101722.00;;;1.85;100.00
62420;BME280;48460;51.616;5.426;2022-12-07T01:06:37;101724.63;;;1.81;100.00
62420;BME280;48460;51.616;5.426;2022-12-07T01:09:03;101715.94;;;1.78;100.00
62420;BME280;48460;51.616;5.426;2022-12-07T01:11:31;101717.72;;;1.76;100.00
62420;BME280;48460;51.616;5.426;2022-12-07T01:14:05;101717.69;;;1.74;100.00
62420;BME280;48460;51.616;5.426;2022-12-07T01:16:31;101723.75;;;1.76;100.00
62420;BME280;48460;51.616;5.426;2022-12-07T01:18:59;101730.66;;;1.82;100.00
62420;BME280;48460;51.616;5.426;2022-12-07T01:21:29;101741.00;;;1.87;100.00
62420;BME280;48460;51.616;5.426;2022-12-07T01:24:01;101735.81;;;1.90;100.00
62420;BME280;48460;51.616;5.426;2022-12-07T01:26:28;101731.47;;;1.98;100.00
62420;BME280;48460;51.616;5.426;2022-12-07T01:28:54;101729.75;;;2.01;100.00
62420;BME280;48460;51.616;5.426;2022-12-07T01:31:24;101730.59;;;2.07;100.00
62420;BME280;48460;51.616;5.426;2022-12-07T01:33:54;101728.00;;;2.13;100.00
62420;BME280;48460;51.616;5.426;2022-12-07T01:39:19;101732.28;;;2.24;100.00
62420;BME280;48460;51.616;5.426;2022-12-07T01:41:55;101730.53;;;2.30;100.00
62420;BME280;48460;51.616;5.426;2022-12-07T01:44:26;101726.19;;;2.32;100.00
62420;BME280;48460;51.616;5.426;2022-12-07T01:46:57;101721.84;;;2.40;100.00
62420;BME280;48460;51.616;5.426;2022-12-07T01:49:35;101723.56;;;2.42;100.00
62420;BME280;48460;51.616;5.426;2022-12-07T01:52:17;101727.84;;;2.46;100.00
62420;BME280;48460;51.616;5.426;2022-12-07T01:54:46;101724.41;;;2.43;100.00
62420;BME280;48460;51.616;5.426;2022-12-07T01:57:15;101721.84;;;2.41;100.00
62420;BME280;48460;51.616;5.426;2022-12-07T01:59:44;101716.69;;;2.35;100.00
62420;BME280;48460;51.616;5.426;2022-12-07T02:02:19;101720.16;;;2.33;100.00
62420;BME280;48460;51.616;5.426;2022-12-07T02:04:48;101723.63;;;2.24;100.00
62420;BME280;48460;51.616;5.426;2022-12-07T02:07:22;101735.72;;;2.25;100.00
62420;BME280;48460;51.616;5.426;2022-12-07T02:09:52;101722.78;;;2.16;100.00
62420;BME280;48460;51.616;5.426;2022-12-07T02:12:20;101718.47;;;2.13;100.00
62420;BME280;48460;51.616;5.426;2022-12-07T02:14:50;101725.41;;;2.14;100.00
62420;BME280;48460;51.616;5.426;2022-12-07T02:17:51;101728.00;;;2.13;100.00
62420;BME280;48460;51.616;5.426;2022-12-07T02:26:55;101717.63;;;1.99;100.00
62420;BME280;48460;51.616;5.426;2022-12-07T02:29:33;101722.84;;;2.00;100.00
62420;BME280;48460;51.616;5.426;2022-12-07T02:32:26;101717.66;;;1.97;100.00
62420;BME280;48460;51.616;5.426;2022-12-07T02:35:07;101721.97;;;1.95;100.00
62420;BME280;48460;51.616;5.426;2022-12-07T02:38:04;101723.69;;;1.93;100.00
62420;BME280;48460;51.616;5.426;2022-12-07T02:40:41;101714.22;;;1.88;100.00
62420;BME280;48460;51.616;5.426;2022-12-07T02:43:17;101719.41;;;1.88;100.00
62420;BME280;48460;51.616;5.426;2022-12-07T02:45:48;101715.94;;;1.84;100.00
62420;BME280;48460;51.616;5.426;2022-12-07T02:48:17;101716.81;;;1.86;100.00
62420;BME280;48460;51.616;5.426;2022-12-07T02:50:47;101706.44;;;1.80;100.00
62420;BME280;48460;51.616;5.426;2022-12-07T02:53:42;101711.66;;;1.77;100.00
62420;BME280;48460;51.616;5.426;2022-12-07T02:59:02;101718.56;;;1.72;100.00
62420;BME280;48460;51.616;5.426;2022-12-07T03:01:50;101718.56;;;1.67;100.00
62420;BME280;48460;51.616;5.426;2022-12-07T03:12:43;101722.91;;;1.59;100.00
62420;BME280;48460;51.616;5.426;2022-12-07T03:15:15;101726.38;;;1.55;100.00
62420;BME280;48460;51.616;5.426;2022-12-07T03:17:45;101719.47;;;1.52;100.00
62420;BME280;48460;51.616;5.426;2022-12-07T03:20:16;101715.13;;;1.51;100.00
62420;BME280;48460;51.616;5.426;2022-12-07T03:22:44;101727.22;;;1.51;100.00
62420;BME280;48460;51.616;5.426;2022-12-07T03:25:13;101724.63;;;1.46;100.00
62420;BME280;48460;51.616;5.426;2022-12-07T03:27:54;101720.31;;;1.53;100.00
62420;BME280;48460;51.616;5.426;2022-12-07T03:30:27;101723.75;;;1.53;100.00
62420;BME280;48460;51.616;5.426;2022-12-07T03:36:15;101716.81;;;1.69;100.00
62420;BME280;48460;51.616;5.426;2022-12-07T03:38:58;101705.59;;;1.75;100.00
62420;BME280;48460;51.616;5.426;2022-12-07T03:41:30;101709.03;;;1.78;100.00
62420;BME280;48460;51.616;5.426;2022-12-07T03:43:57;101706.47;;;1.85;100.00
62420;BME280;48460;51.616;5.426;2022-12-07T03:46:54;101699.50;;;1.91;100.00
62420;BME280;48460;51.616;5.426;2022-12-07T03:49:32;101698.66;;;1.97;100.00
62420;BME280;48460;51.616;5.426;2022-12-07T03:52:18;101701.22;;;1.98;100.00
62420;BME280;48460;51.616;5.426;2022-12-07T03:57:30;101697.75;;;2.02;100.00
62420;BME280;48460;51.616;5.426;2022-12-07T03:59:58;101707.22;;;2.08;100.00
62420;BME280;48460;51.616;5.426;2022-12-07T04:02:25;101714.16;;;2.11;100.00
62420;BME280;48460;51.616;5.426;2022-12-07T04:04:52;101709.81;;;2.11;100.00
62420;BME280;48460;51.616;5.426;2022-12-07T04:07:17;101714.16;;;2.12;100.00
62420;BME280;48460;51.616;5.426;2022-12-07T04:09:42;101707.25;;;2.10;100.00
62420;BME280;48460;51.616;5.426;2022-12-07T04:12:08;101711.56;;;2.11;100.00
62420;BME280;48460;51.616;5.426;2022-12-07T04:14:33;101705.50;;;2.07;100.00
62420;BME280;48460;51.616;5.426;2022-12-07T04:16:59;101713.28;;;2.10;100.00
62420;BME280;48460;51.616;5.426;2022-12-07T04:19:29;101718.47;;;2.10;100.00
62420;BME280;48460;51.616;5.426;2022-12-07T04:21:57;101709.81;;;2.11;100.00
62420;BME280;48460;51.616;5.426;2022-12-07T04:24:23;101715.00;;;2.13;100.00
62420;BME280;48460;51.616;5.426;2022-12-07T04:26:48;101710.69;;;2.15;100.00
62420;BME280;48460;51.616;5.426;2022-12-07T04:29:15;101714.13;;;2.17;100.00
62420;BME280;48460;51.616;5.426;2022-12-07T04:31:41;101710.69;;;2.18;100.00
62420;BME280;48460;51.616;5.426;2022-12-07T04:34:07;101709.81;;;2.17;100.00
62420;BME280;48460;51.616;5.426;2022-12-07T04:36:32;101689.94;;;2.18;100.00
62420;BME280;48460;51.616;5.426;2022-12-07T04:38:58;101706.34;;;2.21;100.00
62420;BME280;48460;51.616;5.426;2022-12-07T04:41:24;101695.06;;;2.22;100.00
62420;BME280;48460;51.616;5.426;2022-12-07T04:43:57;101696.84;;;2.20;100.00
62420;BME280;48460;51.616;5.426;2022-12-07T04:46:25;101689.94;;;2.15;100.00
62420;BME280;48460;51.616;5.426;2022-12-07T04:48:51;101686.47;;;2.11;100.00
62420;BME280;48460;51.616;5.426;2022-12-07T04:51:23;101698.56;;;2.11;100.00
62420;BME280;48460;51.616;5.426;2022-12-07T04:53:48;101702.03;;;2.08;100.00
62420;BME280;48460;51.616;5.426;2022-12-07T04:56:15;101689.09;;;2.03;100.00
62420;BME280;48460;51.616;5.426;2022-12-07T04:58:41;101693.41;;;2.06;100.00
62420;BME280;48460;51.616;5.426;2022-12-07T05:01:07;101686.50;;;1.99;100.00
62420;BME280;48460;51.616;5.426;2022-12-07T05:03:32;101685.66;;;1.97;100.00
62420;BME280;48460;51.616;5.426;2022-12-07T05:05:58;101686.50;;;1.96;100.00
62420;BME280;48460;51.616;5.426;2022-12-07T05:08:23;101690.88;;;1.94;100.00
62420;BME280;48460;51.616;5.426;2022-12-07T05:10:49;101688.25;;;1.92;100.00
62420;BME280;48460;51.616;5.426;2022-12-07T05:13:15;101677.91;;;1.83;100.00
62420;BME280;48460;51.616;5.426;2022-12-07T05:15:40;101686.56;;;1.83;100.00
62420;BME280;48460;51.616;5.426;2022-12-07T05:18:07;101674.47;;;1.76;100.00
62420;BME280;48460;51.616;5.426;2022-12-07T05:20:40;101682.25;;;1.73;100.00
62420;BME280;48460;51.616;5.426;2022-12-07T05:23:06;101684.00;;;1.71;100.00
62420;BME280;48460;51.616;5.426;2022-12-07T05:25:31;101687.44;;;1.72;100.00
62420;BME280;48460;51.616;5.426;2022-12-07T05:27:57;101682.28;;;1.67;100.00
62420;BME280;48460;51.616;5.426;2022-12-07T05:30:24;101687.47;;;1.67;100.00
62420;BME280;48460;51.616;5.426;2022-12-07T05:32:50;101690.03;;;1.66;100.00
62420;BME280;48460;51.616;5.426;2022-12-07T05:35:16;101692.66;;;1.64;100.00
62420;BME280;48460;51.616;5.426;2022-12-07T05:37:42;101688.31;;;1.63;100.00
62420;BME280;48460;51.616;5.426;2022-12-07T05:40:08;101680.56;;;1.58;100.00
62420;BME280;48460;51.616;5.426;2022-12-07T05:42:34;101688.34;;;1.55;100.00
62420;BME280;48460;51.616;5.426;2022-12-07T05:44:59;101679.69;;;1.50;100.00
62420;BME280;48460;51.616;5.426;2022-12-07T05:47:25;101676.25;;;1.45;100.00
62420;BME280;48460;51.616;5.426;2022-12-07T05:49:50;101682.31;;;1.44;100.00
62420;BME280;48460;51.616;5.426;2022-12-07T05:52:16;101676.28;;;1.38;100.00
62420;BME280;48460;51.616;5.426;2022-12-07T05:54:41;101674.53;;;1.33;100.00
62420;BME280;48460;51.616;5.426;2022-12-07T05:57:07;101674.53;;;1.32;100.00
62420;BME280;48460;51.616;5.426;2022-12-07T05:59:32;101669.34;;;1.29;100.00
62420;BME280;48460;51.616;5.426;2022-12-07T06:02:06;101659.84;;;1.23;100.00
62420;BME280;48460;51.616;5.426;2022-12-07T06:04:34;101663.31;;;1.21;100.00
62420;BME280;48460;51.616;5.426;2022-12-07T06:07:01;101663.31;;;1.18;100.00
62420;BME280;48460;51.616;5.426;2022-12-07T06:09:27;101671.06;;;1.14;100.00
62420;BME280;48460;51.616;5.426;2022-12-07T06:11:54;101667.63;;;1.11;100.00
62420;BME280;48460;51.616;5.426;2022-12-07T06:14:38;101668.50;;;1.08;100.00
62420;BME280;48460;51.616;5.426;2022-12-07T06:17:04;101673.66;;;1.07;100.00
62420;BME280;48460;51.616;5.426;2022-12-07T06:19:30;101674.53;;;1.03;100.00
62420;BME280;48460;51.616;5.426;2022-12-07T06:21:55;101678.84;;;1.02;100.00
62420;BME280;48460;51.616;5.426;2022-12-07T06:24:24;101674.53;;;0.97;100.00
62420;BME280;48460;51.616;5.426;2022-12-07T06:26:50;101672.78;;;0.94;100.00
62420;BME280;48460;51.616;5.426;2022-12-07T06:29:16;101681.41;;;0.98;100.00
62420;BME280;48460;51.616;5.426;2022-12-07T06:31:42;101678.84;;;1.05;100.00
62420;BME280;48460;51.616;5.426;2022-12-07T06:34:14;101678.84;;;1.08;100.00
62420;BME280;48460;51.616;5.426;2022-12-07T06:36:40;101675.38;;;1.12;100.00
62420;BME280;48460;51.616;5.426;2022-12-07T06:39:06;101684.91;;;1.23;100.00
62420;BME280;48460;51.616;5.426;2022-12-07T06:41:37;101687.47;;;1.27;100.00
62420;BME280;48460;51.616;5.426;2022-12-07T06:44:06;101683.16;;;1.32;100.00
62420;BME280;48460;51.616;5.426;2022-12-07T06:46:32;101678.84;;;1.34;100.00
62420;BME280;48460;51.616;5.426;2022-12-07T06:48:58;101677.13;;;1.30;100.00
62420;BME280;48460;51.616;5.426;2022-12-07T06:51:23;101686.63;;;1.31;100.00
62420;BME280;48460;51.616;5.426;2022-12-07T06:53:49;101683.16;;;1.26;100.00
62420;BME280;48460;51.616;5.426;2022-12-07T06:56:16;101683.16;;;1.20;100.00
62420;BME280;48460;51.616;5.426;2022-12-07T06:58:42;101678.84;;;1.14;100.00
62420;BME280;48460;51.616;5.426;2022-12-07T07:01:12;101680.59;;;1.11;100.00
62420;BME280;48460;51.616;5.426;2022-12-07T07:03:38;101681.44;;;1.11;100.00
62420;BME280;48460;51.616;5.426;2022-12-07T07:06:05;101687.47;;;1.09;100.00
62420;BME280;48460;51.616;5.426;2022-12-07T07:08:30;101689.19;;;1.10;100.00
62420;BME280;48460;51.616;5.426;2022-12-07T07:10:56;101686.63;;;1.11;100.00
62420;BME280;48460;51.616;5.426;2022-12-07T07:13:22;101687.47;;;1.09;100.00
62420;BME280;48460;51.616;5.426;2022-12-07T07:15:52;101684.00;;;1.10;100.00
62420;BME280;48460;51.616;5.426;2022-12-07T07:18:18;101695.25;;;1.15;100.00
62420;BME280;48460;51.616;5.426;2022-12-07T07:20:46;101690.06;;;1.15;100.00
62420;BME280;48460;51.616;5.426;2022-12-07T07:23:18;101690.94;;;1.14;100.00
62420;BME280;48460;51.616;5.426;2022-12-07T07:25:44;101697.84;;;1.24;100.00
62420;BME280;48460;51.616;5.426;2022-12-07T07:28:10;101684.88;;;1.18;100.00
62420;BME280;48460;51.616;5.426;2022-12-07T07:30:36;101679.72;;;1.20;100.00
62420;BME280;48460;51.616;5.426;2022-12-07T07:33:04;101692.69;;;1.23;100.00
62420;BME280;48460;51.616;5.426;2022-12-07T07:35:32;101690.09;;;1.26;100.00
62420;BME280;48460;51.616;5.426;2022-12-07T07:37:57;101690.06;;;1.30;100.00
62420;BME280;48460;51.616;5.426;2022-12-07T07:40:24;101693.56;;;1.34;100.00
62420;BME280;48460;51.616;5.426;2022-12-07T07:42:50;101690.09;;;1.38;100.00
62420;BME280;48460;51.616;5.426;2022-12-07T07:45:19;101686.63;;;1.41;100.00
62420;BME280;48460;51.616;5.426;2022-12-07T07:47:45;101687.47;;;1.46;100.00
62420;BME280;48460;51.616;5.426;2022-12-07T07:50:10;101687.47;;;1.47;100.00
62420;BME280;48460;51.616;5.426;2022-12-07T07:52:36;101677.13;;;1.47;100.00
62420;BME280;48460;51.616;5.426;2022-12-07T07:55:01;101690.94;;;1.46;100.00
62420;BME280;48460;51.616;5.426;2022-12-07T07:57:27;101689.19;;;1.45;100.00
62420;BME280;48460;51.616;5.426;2022-12-07T07:59:58;101700.44;;;1.47;100.00
62420;BME280;48460;51.616;5.426;2022-12-07T08:02:23;101692.66;;;1.40;100.00
62420;BME280;48460;51.616;5.426;2022-12-07T08:04:49;101694.41;;;1.38;100.00
62420;BME280;48460;51.616;5.426;2022-12-07T08:07:15;101706.50;;;1.40;100.00
62420;BME280;48460;51.616;5.426;2022-12-07T08:09:40;101698.72;;;1.39;100.00
62420;BME280;48460;51.616;5.426;2022-12-07T08:12:06;101696.97;;;1.36;100.00
62420;BME280;48460;51.616;5.426;2022-12-07T08:14:33;101709.09;;;1.40;100.00
62420;BME280;48460;51.616;5.426;2022-12-07T08:16:59;101699.59;;;1.38;100.00
62420;BME280;48460;51.616;5.426;2022-12-07T08:19:25;101700.44;;;1.43;100.00
62420;BME280;48460;51.616;5.426;2022-12-07T08:21:51;101706.47;;;1.57;100.00
62420;BME280;48460;51.616;5.426;2022-12-07T08:24:20;101713.38;;;1.76;100.00
62420;BME280;48460;51.616;5.426;2022-12-07T08:26:46;101709.91;;;1.85;100.00
62420;BME280;48460;51.616;5.426;2022-12-07T08:29:11;101707.25;;;1.99;100.00
62420;BME280;48460;51.616;5.426;2022-12-07T08:31:37;101718.47;;;2.10;100.00
62420;BME280;48460;51.616;5.426;2022-12-07T08:34:03;101715.88;;;2.16;100.00
62420;BME280;48460;51.616;5.426;2022-12-07T08:36:28;101724.50;;;2.24;100.00
62420;BME280;48460;51.616;5.426;2022-12-07T08:38:53;101718.41;;;2.28;100.00
62420;BME280;48460;51.616;5.426;2022-12-07T08:41:19;101721.00;;;2.32;100.00
62420;BME280;48460;51.616;5.426;2022-12-07T08:43:47;101717.53;;;2.31;100.00
62420;BME280;48460;51.616;5.426;2022-12-07T08:46:37;101713.19;;;2.38;100.00
62420;BME280;48460;51.616;5.426;2022-12-07T08:49:11;101709.72;;;2.42;100.00
62420;BME280;48460;51.616;5.426;2022-12-07T08:51:39;101705.38;;;2.47;100.00
62420;BME280;48460;51.616;5.426;2022-12-07T08:54:08;101706.22;;;2.50;100.00
62420;BME280;48460;51.616;5.426;2022-12-07T08:56:34;101705.34;;;2.56;100.00
62420;BME280;48460;51.616;5.426;2022-12-07T08:59:00;101707.03;;;2.59;100.00
62420;BME280;48460;51.616;5.426;2022-12-07T09:01:26;101706.19;;;2.60;100.00
62420;BME280;48460;51.616;5.426;2022-12-07T09:03:52;101705.34;;;2.56;100.00
62420;BME280;48460;51.616;5.426;2022-12-07T09:06:17;101694.09;;;2.54;100.00
62420;BME280;48460;51.616;5.426;2022-12-07T09:08:46;101693.22;;;2.57;100.00
62420;BME280;48460;51.616;5.426;2022-12-07T09:11:12;101702.69;;;2.61;100.00
62420;BME280;48460;51.616;5.426;2022-12-07T09:13:38;101706.13;;;2.64;100.00
62420;BME280;48460;51.616;5.426;2022-12-07T09:16:03;101705.28;;;2.65;100.00
62420;BME280;48460;51.616;5.426;2022-12-07T09:18:29;101694.91;;;2.62;100.00
62420;BME280;48460;51.616;5.426;2022-12-07T09:20:55;101694.91;;;2.61;100.00
62420;BME280;48460;51.616;5.426;2022-12-07T09:23:21;101707.91;;;2.58;100.00
62420;BME280;48460;51.616;5.426;2022-12-07T09:25:47;101702.72;;;2.55;100.00
62420;BME280;48460;51.616;5.426;2022-12-07T09:28:12;101703.59;;;2.52;100.00
62420;BME280;48460;51.616;5.426;2022-12-07T09:30:38;101699.28;;;2.54;100.00
62420;BME280;48460;51.616;5.426;2022-12-07T09:33:03;101709.63;;;2.62;100.00
62420;BME280;48460;51.616;5.426;2022-12-07T09:35:29;101712.13;;;2.79;100.00
62420;BME280;48460;51.616;5.426;2022-12-07T09:37:54;101705.97;;;2.98;100.00
62420;BME280;48460;51.616;5.426;2022-12-07T09:40:21;101705.69;;;3.33;100.00
62420;BME280;48460;51.616;5.426;2022-12-07T09:42:51;101701.16;;;3.54;100.00
62420;BME280;48460;51.616;5.426;2022-12-07T09:45:22;101710.56;;;3.69;100.00
62420;BME280;48460;51.616;5.426;2022-12-07T09:47:48;101703.56;;;3.78;100.00
62420;BME280;48460;51.616;5.426;2022-12-07T09:50:19;101699.06;;;3.89;100.00
62420;BME280;48460;51.616;5.426;2022-12-07T09:52:47;101702.97;;;4.30;100.00
62420;BME280;48460;51.616;5.426;2022-12-07T09:55:22;101706.59;;;4.84;100.00
62420;BME280;48460;51.616;5.426;2022-12-07T09:57:49;101702.84;;;5.03;100.00
62420;BME280;48460;51.616;5.426;2022-12-07T10:00:19;101695.84;;;5.07;100.00
62420;BME280;48460;51.616;5.426;2022-12-07T10:03:00;101700.75;;;5.27;100.00
62420;BME280;48460;51.616;5.426;2022-12-07T10:05:38;101691.22;;;5.24;100.00
62420;BME280;48460;51.616;5.426;2022-12-07T10:08:07;101689.53;;;5.20;100.00
62420;BME280;48460;51.616;5.426;2022-12-07T10:10:34;101693.78;;;5.27;100.00
62420;BME280;48460;51.616;5.426;2022-12-07T10:13:13;101689.28;;;5.35;100.00
62420;BME280;48460;51.616;5.426;2022-12-07T10:15:57;101695.34;;;5.37;100.00
62420;BME280;48460;51.616;5.426;2022-12-07T10:18:29;101685.06;;;5.28;100.00
62420;BME280;48460;51.616;5.426;2022-12-07T10:21:14;101695.59;;;5.23;100.00
62420;BME280;48460;51.616;5.426;2022-12-07T10:24:05;101686.06;;;5.21;100.00
62420;BME280;48460;51.616;5.426;2022-12-07T10:29:20;101689.56;;;5.69;100.00
62420;BME280;48460;51.616;5.426;2022-12-07T10:31:55;101681.84;;;6.13;100.00
62420;BME280;48460;51.616;5.426;2022-12-07T10:34:25;101676.75;;;6.86;100.00
62420;BME280;48460;51.616;5.426;2022-12-07T10:36:53;101659.97;;;6.96;100.00
62420;BME280;48460;51.616;5.426;2022-12-07T10:39:22;101664.53;;;6.87;100.00
62420;BME280;48460;51.616;5.426;2022-12-07T10:42:01;101665.88;;;6.66;100.00
62420;BME280;48460;51.616;5.426;2022-12-07T10:44:32;101658.47;;;6.47;100.00
62420;BME280;48460;51.616;5.426;2022-12-07T10:55:22;101659.84;;;6.64;100.00
62420;BME280;48460;51.616;5.426;2022-12-07T11:01:02;101649.66;;;7.26;100.00
62420;BME280;48460;51.616;5.426;2022-12-07T11:09:23;101644.22;;;6.99;100.00
62420;BME280;48460;51.616;5.426;2022-12-07T11:12:03;101640.91;;;6.91;100.00
62420;BME280;48460;51.616;5.426;2022-12-07T11:14:40;101637.38;;;6.94;100.00
62420;BME280;48460;51.616;5.426;2022-12-07T11:17:22;101641.38;;;7.08;100.00
62420;BME280;48460;51.616;5.426;2022-12-07T11:20:00;101630.22;;;7.00;100.00
62420;BME280;48460;51.616;5.426;2022-12-07T11:22:34;101637.00;;;6.72;100.00
62420;BME280;48460;51.616;5.426;2022-12-07T11:33:17;101612.88;;;6.22;100.00
62420;BME280;48460;51.616;5.426;2022-12-07T11:38:37;101607.03;;;6.10;100.00
62420;BME280;48460;51.616;5.426;2022-12-07T11:41:08;101609.78;;;6.03;100.00
62420;BME280;48460;51.616;5.426;2022-12-07T11:43:56;101601.25;;;5.91;100.00
62420;BME280;48460;51.616;5.426;2022-12-07T11:47:02;101601.22;;;5.94;100.00
62420;BME280;48460;51.616;5.426;2022-12-07T11:49:43;101603.78;;;5.98;100.00
62420;BME280;48460;51.616;5.426;2022-12-07T11:52:18;101598.56;;;5.98;100.00
62420;BME280;48460;51.616;5.426;2022-12-07T11:54:46;101595.94;;;5.98;100.00
62420;BME280;48460;51.616;5.426;2022-12-07T11:57:22;101593.69;;;6.23;100.00
62420;BME280;48460;51.616;5.426;2022-12-07T11:59:52;101596.47;;;6.54;100.00
62420;BME280;48460;51.616;5.426;2022-12-07T12:02:33;101590.31;;;6.94;100.00
62420;BME280;48460;51.616;5.426;2022-12-07T12:05:13;101591.31;;;8.46;100.00
62420;BME280;48460;51.616;5.426;2022-12-07T12:07:41;101585.91;;;9.30;97.89
62420;BME280;48460;51.616;5.426;2022-12-07T12:21:11;101578.28;;;7.53;100.00
62420;BME280;48460;51.616;5.426;2022-12-07T12:23:56;101578.88;;;7.30;100.00
62420;BME280;48460;51.616;5.426;2022-12-07T12:26:25;101571.94;;;7.61;100.00
62420;BME280;48460;51.616;5.426;2022-12-07T12:29:02;101569.13;;;7.68;99.26
62420;BME280;48460;51.616;5.426;2022-12-07T12:31:39;101566.47;;;7.99;100.00
62420;BME280;48460;51.616;5.426;2022-12-07T12:42:55;101559.63;;;11.32;86.76
62420;BME280;48460;51.616;5.426;2022-12-07T12:45:27;101561.56;;;11.29;80.16
62420;BME280;48460;51.616;5.426;2022-12-07T12:50:37;101551.34;;;12.38;76.86
62420;BME280;48460;51.616;5.426;2022-12-07T12:53:23;101561.97;;;13.07;76.68
62420;BME280;48460;51.616;5.426;2022-12-07T13:00:43;101536.56;;;13.22;68.48
62420;BME280;48460;51.616;5.426;2022-12-07T13:03:27;101533.69;;;12.74;74.53
62420;BME280;48460;51.616;5.426;2022-12-07T13:06:35;101529.59;;;11.76;79.29
62420;BME280;48460;51.616;5.426;2022-12-07T13:09:03;101527.66;;;10.80;78.00
62420;BME280;48460;51.616;5.426;2022-12-07T13:11:33;101529.41;;;10.59;80.10
62420;BME280;48460;51.616;5.426;2022-12-07T13:17:02;101523.44;;;11.56;74.12
62420;BME280;48460;51.616;5.426;2022-12-07T13:27:40;101511.59;;;10.00;79.48
62420;BME280;48460;51.616;5.426;2022-12-07T13:30:24;101501.66;;;9.85;79.89
62420;BME280;48460;51.616;5.426;2022-12-07T13:32:58;101504.97;;;9.66;81.01
62420;BME280;48460;51.616;5.426;2022-12-07T13:35:37;101493.66;;;9.17;82.88
62420;BME280;48460;51.616;5.426;2022-12-07T13:38:05;101506.81;;;8.90;84.84
62420;BME280;48460;51.616;5.426;2022-12-07T13:40:31;101499.94;;;9.36;83.62
62420;BME280;48460;51.616;5.426;2022-12-07T13:43:01;101494.69;;;9.84;81.19
62420;BME280;48460;51.616;5.426;2022-12-07T13:45:32;101488.41;;;10.10;79.04
62420;BME280;48460;51.616;5.426;2022-12-07T13:48:46;101489.63;;;10.01;79.19
62420;BME280;48460;51.616;5.426;2022-12-07T13:51:24;101476.03;;;9.44;82.61
62420;BME280;48460;51.616;5.426;2022-12-07T13:53:55;101477.03;;;8.92;83.05
62420;BME280;48460;51.616;5.426;2022-12-07T13:56:28;101477.97;;;8.39;86.04
62420;BME280;48460;51.616;5.426;2022-12-07T13:58:56;101473.94;;;7.99;88.92
62420;BME280;48460;51.616;5.426;2022-12-07T14:01:22;101472.19;;;7.99;90.83
62420;BME280;48460;51.616;5.426;2022-12-07T14:03:47;101475.00;;;7.93;91.90
62420;BME280;48460;51.616;5.426;2022-12-07T14:06:23;101472.38;;;7.65;93.17
62420;BME280;48460;51.616;5.426;2022-12-07T14:09:17;101471.63;;;7.30;95.54
62420;BME280;48460;51.616;5.426;2022-12-07T14:11:44;101476.69;;;7.04;100.00
62420;BME280;48460;51.616;5.426;2022-12-07T14:14:25;101478.03;;;6.88;100.00
62420;BME280;48460;51.616;5.426;2022-12-07T14:17:18;101480.84;;;6.46;100.00
62420;BME280;48460;51.616;5.426;2022-12-07T14:19:50;101471.97;;;6.15;100.00
62420;BME280;48460;51.616;5.426;2022-12-07T14:27:51;101469.38;;;5.75;100.00
62420;BME280;48460;51.616;5.426;2022-12-07T14:30:18;101469.41;;;5.74;100.00
62420;BME280;48460;51.616;5.426;2022-12-07T14:32:44;101470.22;;;5.76;100.00
62420;BME280;48460;51.616;5.426;2022-12-07T14:35:14;101475.38;;;5.80;100.00
62420;BME280;48460;51.616;5.426;2022-12-07T14:37:42;101468.28;;;5.85;100.00
62420;BME280;48460;51.616;5.426;2022-12-07T14:40:13;101470.03;;;5.85;100.00
62420;BME280;48460;51.616;5.426;2022-12-07T14:42:39;101474.41;;;5.84;100.00
62420;BME280;48460;51.616;5.426;2022-12-07T14:45:06;101465.06;;;5.74;100.00
62420;BME280;48460;51.616;5.426;2022-12-07T14:47:31;101460.84;;;5.67;100.00
62420;BME280;48460;51.616;5.426;2022-12-07T14:49:57;101457.53;;;5.60;100.00